sensor_id;sensor_type;location;lat;lon;timestamp;temperature;humidity
13472;DHT22;6808;49.444;11.034;2023-01-28T00:00:06;0.80;99.90
13472;DHT22;6808;49.444;11.034;2023-01-28T00:02:32;0.70;99.90
13472;DHT22;6808;49.444;11.034;2023-01-28T00:04:59;0.70;99.90
13472;DHT22;6808;49.444;11.034;2023-01-28T00:07:24;0.80;99.90
13472;DHT22;6808;49.444;11.034;2023-01-28T00:09:50;0.70;99.90
13472;DHT22;6808;49.444;11.034;2023-01-28T00:12:16;0.70;99.90
13472;DHT22;6808;49.444;11.034;2023-01-28T00:14:42;0.70;99.90
13472;DHT22;6808;49.444;11.034;2023-01-28T00:17:07;0.70;99.90
13472;DHT22;6808;49.444;11.034;2023-01-28T00:19:33;0.70;99.90
13472;DHT22;6808;49.444;11.034;2023-01-28T00:21:58;0.70;99.90
13472;DHT22;6808;49.444;11.034;2023-01-28T00:24:24;0.70;99.90
13472;DHT22;6808;49.444;11.034;2023-01-28T00:26:49;0.70;99.90
13472;DHT22;6808;49.444;11.034;2023-01-28T00:29:15;0.70;99.90
13472;DHT22;6808;49.444;11.034;2023-01-28T00:31:41;0.70;99.90
13472;DHT22;6808;49.444;11.034;2023-01-28T00:34:07;0.70;99.90
13472;DHT22;6808;49.444;11.034;2023-01-28T00:36:33;0.80;99.90
13472;DHT22;6808;49.444;11.034;2023-01-28T00:39:04;0.80;99.90
13472;DHT22;6808;49.444;11.034;2023-01-28T00:41:30;0.70;99.90
13472;DHT22;6808;49.444;11.034;2023-01-28T00:43:56;0.70;99.90
13472;DHT22;6808;49.444;11.034;2023-01-28T00:46:22;0.70;99.90
13472;DHT22;6808;49.444;11.034;2023-01-28T00:48:50;0.70;99.90
13472;DHT22;6808;49.444;11.034;2023-01-28T00:51:17;0.70;99.90
13472;DHT22;6808;49.444;11.034;2023-01-28T00:53:44;0.80;99.90
13472;DHT22;6808;49.444;11.034;2023-01-28T00:56:12;0.80;99.90
13472;DHT22;6808;49.444;11.034;2023-01-28T00:58:38;0.90;99.90
13472;DHT22;6808;49.444;11.034;2023-01-28T01:01:08;0.80;99.90
13472;DHT22;6808;49.444;11.034;2023-01-28T01:03:34;0.80;99.90
13472;DHT22;6808;49.444;11.034;2023-01-28T01:06:00;0.80;99.90
13472;DHT22;6808;49.444;11.034;2023-01-28T01:08:25;0.80;99.90
13472;DHT22;6808;49.444;11.034;2023-01-28T01:11:02;0.80;99.90
13472;DHT22;6808;49.444;11.034;2023-01-28T01:13:29;0.80;99.90
13472;DHT22;6808;49.444;11.034;2023-01-28T01:18:34;0.80;99.90
13472;DHT22;6808;49.444;11.034;2023-01-28T01:21:00;0.80;99.90
13472;DHT22;6808;49.444;11.034;2023-01-28T01:23:29;0.80;99.90
13472;DHT22;6808;49.444;11.034;2023-01-28T01:25:55;0.80;99.90
13472;DHT22;6808;49.444;11.034;2023-01-28T01:28:21;0.80;99.90
13472;DHT22;6808;49.444;11.034;2023-01-28T01:30:48;0.80;99.90
13472;DHT22;6808;49.444;11.034;2023-01-28T01:33:13;0.90;99.90
13472;DHT22;6808;49.444;11.034;2023-01-28T01:35:39;0.80;99.90
13472;DHT22;6808;49.444;11.034;2023-01-28T01:38:05;0.80;99.90
13472;DHT22;6808;49.444;11.034;2023-01-28T01:40:31;0.90;99.90
13472;DHT22;6808;49.444;11.034;2023-01-28T01:42:56;0.80;99.90
13472;DHT22;6808;49.444;11.034;2023-01-28T01:45:22;0.80;99.90
13472;DHT22;6808;49.444;11.034;2023-01-28T01:48:01;0.80;99.90
13472;DHT22;6808;49.444;11.034;2023-01-28T01:50:33;0.80;99.90
13472;DHT22;6808;49.444;11.034;2023-01-28T01:53:06;0.80;99.90
13472;DHT22;6808;49.444;11.034;2023-01-28T01:55:34;0.80;99.90
13472;DHT22;6808;49.444;11.034;2023-01-28T01:58:06;0.80;99.90
13472;DHT22;6808;49.444;11.034;2023-01-28T02:00:32;0.80;99.90
13472;DHT22;6808;49.444;11.034;2023-01-28T02:02:58;0.80;99.90
13472;DHT22;6808;49.444;11.034;2023-01-28T02:05:24;0.80;99.90
13472;DHT22;6808;49.444;11.034;2023-01-28T02:07:54;0.80;99.90
13472;DHT22;6808;49.444;11.034;2023-01-28T02:13:16;0.90;99.90
13472;DHT22;6808;49.444;11.034;2023-01-28T02:15:44;0.90;99.90
13472;DHT22;6808;49.444;11.034;2023-01-28T02:18:10;0.80;99.90
13472;DHT22;6808;49.444;11.034;2023-01-28T02:29:17;0.80;99.90
13472;DHT22;6808;49.444;11.034;2023-01-28T02:32:12;0.80;99.90
13472;DHT22;6808;49.444;11.034;2023-01-28T02:34:47;0.80;99.90
13472;DHT22;6808;49.444;11.034;2023-01-28T02:37:21;0.90;99.90
13472;DHT22;6808;49.444;11.034;2023-01-28T02:39:52;0.90;99.90
13472;DHT22;6808;49.444;11.034;2023-01-28T02:42:31;0.90;99.90
13472;DHT22;6808;49.444;11.034;2023-01-28T02:44:58;0.90;99.90
13472;DHT22;6808;49.444;11.034;2023-01-28T02:47:23;0.90;99.90
13472;DHT22;6808;49.444;11.034;2023-01-28T02:50:13;0.90;99.90
13472;DHT22;6808;49.444;11.034;2023-01-28T02:53:07;0.90;99.90
13472;DHT22;6808;49.444;11.034;2023-01-28T02:56:27;0.90;99.90
13472;DHT22;6808;49.444;11.034;2023-01-28T03:01:58;0.90;99.90
13472;DHT22;6808;49.444;11.034;2023-01-28T03:07:09;0.90;99.90
13472;DHT22;6808;49.444;11.034;2023-01-28T03:09:38;0.90;99.90
13472;DHT22;6808;49.444;11.034;2023-01-28T03:12:11;0.90;99.90
13472;DHT22;6808;49.444;11.034;2023-01-28T03:15:23;0.90;99.90
13472;DHT22;6808;49.444;11.034;2023-01-28T03:18:17;0.90;99.90
13472;DHT22;6808;49.444;11.034;2023-01-28T03:21:10;0.90;99.90
13472;DHT22;6808;49.444;11.034;2023-01-28T03:23:59;0.90;99.90
13472;DHT22;6808;49.444;11.034;2023-01-28T03:29:43;0.90;99.90
13472;DHT22;6808;49.444;11.034;2023-01-28T03:32:29;0.90;99.90
13472;DHT22;6808;49.444;11.034;2023-01-28T03:35:15;0.90;99.90
13472;DHT22;6808;49.444;11.034;2023-01-28T03:38:01;0.90;99.90
13472;DHT22;6808;49.444;11.034;2023-01-28T03:40:51;1.00;99.90
13472;DHT22;6808;49.444;11.034;2023-01-28T03:43:17;0.90;99.90
13472;DHT22;6808;49.444;11.034;2023-01-28T03:45:42;1.00;99.90
13472;DHT22;6808;49.444;11.034;2023-01-28T03:48:11;0.90;99.90
13472;DHT22;6808;49.444;11.034;2023-01-28T03:50:37;0.90;99.90
13472;DHT22;6808;49.444;11.034;2023-01-28T03:53:02;1.00;99.90
13472;DHT22;6808;49.444;11.034;2023-01-28T03:55:43;1.00;99.90
13472;DHT22;6808;49.444;11.034;2023-01-28T03:58:10;0.90;99.90
13472;DHT22;6808;49.444;11.034;2023-01-28T04:00:36;0.90;99.90
13472;DHT22;6808;49.444;11.034;2023-01-28T04:03:15;0.90;99.90
13472;DHT22;6808;49.444;11.034;2023-01-28T04:06:05;0.90;99.90
13472;DHT22;6808;49.444;11.034;2023-01-28T04:08:31;0.90;99.90
13472;DHT22;6808;49.444;11.034;2023-01-28T04:10:56;0.90;99.90
13472;DHT22;6808;49.444;11.034;2023-01-28T04:13:22;0.90;99.90
13472;DHT22;6808;49.444;11.034;2023-01-28T04:15:48;0.90;99.90
13472;DHT22;6808;49.444;11.034;2023-01-28T04:18:13;1.00;99.90
13472;DHT22;6808;49.444;11.034;2023-01-28T04:20:39;1.00;99.90
13472;DHT22;6808;49.444;11.034;2023-01-28T04:23:06;0.90;99.90
13472;DHT22;6808;49.444;11.034;2023-01-28T04:25:32;0.90;99.90
13472;DHT22;6808;49.444;11.034;2023-01-28T04:27:58;0.90;99.90
13472;DHT22;6808;49.444;11.034;2023-01-28T04:30:24;0.90;99.90
13472;DHT22;6808;49.444;11.034;2023-01-28T04:32:49;0.90;99.90
13472;DHT22;6808;49.444;11.034;2023-01-28T04:35:16;0.90;99.90
13472;DHT22;6808;49.444;11.034;2023-01-28T04:37:42;0.90;99.90
13472;DHT22;6808;49.444;11.034;2023-01-28T04:40:08;0.90;99.90
13472;DHT22;6808;49.444;11.034;2023-01-28T04:42:34;0.90;99.90
13472;DHT22;6808;49.444;11.034;2023-01-28T04:45:00;0.90;99.90
13472;DHT22;6808;49.444;11.034;2023-01-28T04:47:25;0.90;99.90
13472;DHT22;6808;49.444;11.034;2023-01-28T04:49:51;0.90;99.90
13472;DHT22;6808;49.444;11.034;2023-01-28T04:52:16;0.90;99.90
13472;DHT22;6808;49.444;11.034;2023-01-28T04:54:42;0.90;99.90
13472;DHT22;6808;49.444;11.034;2023-01-28T04:57:07;1.00;99.90
13472;DHT22;6808;49.444;11.034;2023-01-28T04:59:33;1.00;99.90
13472;DHT22;6808;49.444;11.034;2023-01-28T05:01:59;1.00;99.90
13472;DHT22;6808;49.444;11.034;2023-01-28T05:04:24;1.00;99.90
13472;DHT22;6808;49.444;11.034;2023-01-28T05:06:50;1.00;99.90
13472;DHT22;6808;49.444;11.034;2023-01-28T05:09:15;1.00;99.90
13472;DHT22;6808;49.444;11.034;2023-01-28T05:11:41;0.90;99.90
13472;DHT22;6808;49.444;11.034;2023-01-28T05:14:07;1.00;99.90
13472;DHT22;6808;49.444;11.034;2023-01-28T05:16:33;1.00;99.90
13472;DHT22;6808;49.444;11.034;2023-01-28T05:19:00;1.00;99.90
13472;DHT22;6808;49.444;11.034;2023-01-28T05:21:26;1.00;99.90
13472;DHT22;6808;49.444;11.034;2023-01-28T05:23:51;1.00;99.90
13472;DHT22;6808;49.444;11.034;2023-01-28T05:26:17;1.00;99.90
13472;DHT22;6808;49.444;11.034;2023-01-28T05:28:42;1.00;99.90
13472;DHT22;6808;49.444;11.034;2023-01-28T05:31:09;0.90;99.90
13472;DHT22;6808;49.444;11.034;2023-01-28T05:33:35;0.90;99.90
13472;DHT22;6808;49.444;11.034;2023-01-28T05:36:01;0.90;99.90
13472;DHT22;6808;49.444;11.034;2023-01-28T05:38:26;1.30;99.90
13472;DHT22;6808;49.444;11.034;2023-01-28T05:40:52;0.90;99.90
13472;DHT22;6808;49.444;11.034;2023-01-28T05:43:18;0.90;99.90
13472;DHT22;6808;49.444;11.034;2023-01-28T05:45:43;0.90;99.90
13472;DHT22;6808;49.444;11.034;2023-01-28T05:48:09;0.90;99.90
13472;DHT22;6808;49.444;11.034;2023-01-28T05:50:34;0.90;99.90
13472;DHT22;6808;49.444;11.034;2023-01-28T05:53:00;1.00;99.90
13472;DHT22;6808;49.444;11.034;2023-01-28T05:55:25;1.00;99.90
13472;DHT22;6808;49.444;11.034;2023-01-28T05:57:51;0.90;99.90
13472;DHT22;6808;49.444;11.034;2023-01-28T06:00:17;0.90;99.90
13472;DHT22;6808;49.444;11.034;2023-01-28T06:02:42;0.90;99.90
13472;DHT22;6808;49.444;11.034;2023-01-28T06:05:09;1.00;99.90
13472;DHT22;6808;49.444;11.034;2023-01-28T06:07:35;1.00;99.90
13472;DHT22;6808;49.444;11.034;2023-01-28T06:10:00;1.00;99.90
13472;DHT22;6808;49.444;11.034;2023-01-28T06:12:26;1.00;99.90
13472;DHT22;6808;49.444;11.034;2023-01-28T06:14:52;1.00;99.90
13472;DHT22;6808;49.444;11.034;2023-01-28T06:17:17;1.00;99.90
13472;DHT22;6808;49.444;11.034;2023-01-28T06:19:43;1.00;99.90
13472;DHT22;6808;49.444;11.034;2023-01-28T06:22:09;1.00;99.90
13472;DHT22;6808;49.444;11.034;2023-01-28T06:24:34;1.00;99.90
13472;DHT22;6808;49.444;11.034;2023-01-28T06:27:00;1.00;99.90
13472;DHT22;6808;49.444;11.034;2023-01-28T06:29:26;1.00;99.90
13472;DHT22;6808;49.444;11.034;2023-01-28T06:31:51;1.00;99.90
13472;DHT22;6808;49.444;11.034;2023-01-28T06:34:17;1.00;99.90
13472;DHT22;6808;49.444;11.034;2023-01-28T06:36:46;1.00;99.90
13472;DHT22;6808;49.444;11.034;2023-01-28T06:39:11;1.00;99.90
13472;DHT22;6808;49.444;11.034;2023-01-28T06:41:37;1.00;99.90
13472;DHT22;6808;49.444;11.034;2023-01-28T06:44:02;1.00;99.90
13472;DHT22;6808;49.444;11.034;2023-01-28T06:46:28;0.90;99.90
13472;DHT22;6808;49.444;11.034;2023-01-28T06:48:53;1.00;99.90
13472;DHT22;6808;49.444;11.034;2023-01-28T06:51:19;0.90;99.90
13472;DHT22;6808;49.444;11.034;2023-01-28T06:53:45;0.90;99.90
13472;DHT22;6808;49.444;11.034;2023-01-28T06:56:10;0.90;99.90
13472;DHT22;6808;49.444;11.034;2023-01-28T06:58:36;0.90;99.90
13472;DHT22;6808;49.444;11.034;2023-01-28T07:01:01;1.00;99.90
13472;DHT22;6808;49.444;11.034;2023-01-28T07:03:28;1.00;99.90
13472;DHT22;6808;49.444;11.034;2023-01-28T07:05:53;1.00;99.90
13472;DHT22;6808;49.444;11.034;2023-01-28T07:08:19;1.00;99.90
13472;DHT22;6808;49.444;11.034;2023-01-28T07:10:45;0.90;99.90
13472;DHT22;6808;49.444;11.034;2023-01-28T07:13:10;0.90;99.90
13472;DHT22;6808;49.444;11.034;2023-01-28T07:15:36;1.00;99.90
13472;DHT22;6808;49.444;11.034;2023-01-28T07:18:01;1.00;99.90
13472;DHT22;6808;49.444;11.034;2023-01-28T07:20:27;1.00;99.90
13472;DHT22;6808;49.444;11.034;2023-01-28T07:22:53;1.00;99.90
13472;DHT22;6808;49.444;11.034;2023-01-28T07:25:18;1.00;99.90
13472;DHT22;6808;49.444;11.034;2023-01-28T07:27:51;1.00;99.90
13472;DHT22;6808;49.444;11.034;2023-01-28T07:30:19;1.00;99.90
13472;DHT22;6808;49.444;11.034;2023-01-28T07:32:45;1.00;99.90
13472;DHT22;6808;49.444;11.034;2023-01-28T07:35:11;1.00;99.90
13472;DHT22;6808;49.444;11.034;2023-01-28T07:37:37;1.00;99.90
13472;DHT22;6808;49.444;11.034;2023-01-28T07:40:03;0.90;99.90
13472;DHT22;6808;49.444;11.034;2023-01-28T07:42:29;0.90;99.90
13472;DHT22;6808;49.444;11.034;2023-01-28T07:44:56;0.90;99.90
13472;DHT22;6808;49.444;11.034;2023-01-28T07:47:21;0.90;99.90
13472;DHT22;6808;49.444;11.034;2023-01-28T07:49:47;0.90;99.90
13472;DHT22;6808;49.444;11.034;2023-01-28T07:52:12;1.00;99.90
13472;DHT22;6808;49.444;11.034;2023-01-28T07:54:38;1.00;99.90
13472;DHT22;6808;49.444;11.034;2023-01-28T07:57:07;1.00;99.90
13472;DHT22;6808;49.444;11.034;2023-01-28T07:59:36;1.00;99.90
13472;DHT22;6808;49.444;11.034;2023-01-28T08:02:04;1.00;99.90
13472;DHT22;6808;49.444;11.034;2023-01-28T08:04:30;1.00;99.90
13472;DHT22;6808;49.444;11.034;2023-01-28T08:06:56;1.00;99.90
13472;DHT22;6808;49.444;11.034;2023-01-28T08:09:22;1.00;99.90
13472;DHT22;6808;49.444;11.034;2023-01-28T08:11:47;1.00;99.90
13472;DHT22;6808;49.444;11.034;2023-01-28T08:14:13;1.10;99.90
13472;DHT22;6808;49.444;11.034;2023-01-28T08:16:38;1.10;99.90
13472;DHT22;6808;49.444;11.034;2023-01-28T08:19:04;1.10;99.90
13472;DHT22;6808;49.444;11.034;2023-01-28T08:21:29;1.10;99.90
13472;DHT22;6808;49.444;11.034;2023-01-28T08:23:55;1.10;99.90
13472;DHT22;6808;49.444;11.034;2023-01-28T08:26:21;1.10;99.90
13472;DHT22;6808;49.444;11.034;2023-01-28T08:28:47;1.10;99.90
13472;DHT22;6808;49.444;11.034;2023-01-28T08:31:12;1.10;99.90
13472;DHT22;6808;49.444;11.034;2023-01-28T08:33:38;1.10;99.90
13472;DHT22;6808;49.444;11.034;2023-01-28T08:36:04;1.10;99.90
13472;DHT22;6808;49.444;11.034;2023-01-28T08:38:29;1.10;99.90
13472;DHT22;6808;49.444;11.034;2023-01-28T08:40:55;1.20;99.90
13472;DHT22;6808;49.444;11.034;2023-01-28T08:43:22;1.20;99.90
13472;DHT22;6808;49.444;11.034;2023-01-28T08:45:47;1.20;99.90
13472;DHT22;6808;49.444;11.034;2023-01-28T08:48:15;1.20;99.90
13472;DHT22;6808;49.444;11.034;2023-01-28T08:50:41;1.20;99.90
13472;DHT22;6808;49.444;11.034;2023-01-28T08:53:15;1.20;99.90
13472;DHT22;6808;49.444;11.034;2023-01-28T08:55:41;1.20;99.90
13472;DHT22;6808;49.444;11.034;2023-01-28T08:58:09;1.20;99.90
13472;DHT22;6808;49.444;11.034;2023-01-28T09:00:36;1.20;99.90
13472;DHT22;6808;49.444;11.034;2023-01-28T09:03:02;1.30;99.90
13472;DHT22;6808;49.444;11.034;2023-01-28T09:05:28;1.30;99.90
13472;DHT22;6808;49.444;11.034;2023-01-28T09:07:54;1.30;99.90
13472;DHT22;6808;49.444;11.034;2023-01-28T09:10:20;1.30;99.90
13472;DHT22;6808;49.444;11.034;2023-01-28T09:12:46;1.30;99.90
13472;DHT22;6808;49.444;11.034;2023-01-28T09:15:12;1.30;99.90
13472;DHT22;6808;49.444;11.034;2023-01-28T09:17:39;1.40;99.90
13472;DHT22;6808;49.444;11.034;2023-01-28T09:20:06;1.40;99.90
13472;DHT22;6808;49.444;11.034;2023-01-28T09:22:32;1.40;99.90
13472;DHT22;6808;49.444;11.034;2023-01-28T09:24:58;1.40;99.90
13472;DHT22;6808;49.444;11.034;2023-01-28T09:27:23;1.40;99.90
13472;DHT22;6808;49.444;11.034;2023-01-28T09:29:49;1.40;99.90
13472;DHT22;6808;49.444;11.034;2023-01-28T09:32:14;1.40;99.90
13472;DHT22;6808;49.444;11.034;2023-01-28T09:34:40;1.40;99.90
13472;DHT22;6808;49.444;11.034;2023-01-28T09:37:05;1.40;99.90
13472;DHT22;6808;49.444;11.034;2023-01-28T09:39:31;1.50;99.90
13472;DHT22;6808;49.444;11.034;2023-01-28T09:47:54;1.50;99.90
13472;DHT22;6808;49.444;11.034;2023-01-28T09:52:54;1.50;99.90
13472;DHT22;6808;49.444;11.034;2023-01-28T09:57:54;1.50;99.90
13472;DHT22;6808;49.444;11.034;2023-01-28T10:00:25;1.50;99.90
13472;DHT22;6808;49.444;11.034;2023-01-28T10:03:03;1.60;99.90
13472;DHT22;6808;49.444;11.034;2023-01-28T10:05:52;1.60;99.90
13472;DHT22;6808;49.444;11.034;2023-01-28T10:08:40;1.60;99.90
13472;DHT22;6808;49.444;11.034;2023-01-28T10:11:25;1.60;99.90
13472;DHT22;6808;49.444;11.034;2023-01-28T10:14:24;1.70;99.90
13472;DHT22;6808;49.444;11.034;2023-01-28T10:17:09;1.70;99.90
13472;DHT22;6808;49.444;11.034;2023-01-28T10:19:43;1.70;99.90
13472;DHT22;6808;49.444;11.034;2023-01-28T10:24:58;1.80;99.90
13472;DHT22;6808;49.444;11.034;2023-01-28T10:27:31;1.80;99.90
13472;DHT22;6808;49.444;11.034;2023-01-28T10:30:09;1.80;99.90
13472;DHT22;6808;49.444;11.034;2023-01-28T10:32:45;1.90;99.90
13472;DHT22;6808;49.444;11.034;2023-01-28T10:35:11;1.90;99.90
13472;DHT22;6808;49.444;11.034;2023-01-28T10:37:38;1.90;99.90
13472;DHT22;6808;49.444;11.034;2023-01-28T10:40:16;1.90;99.90
13472;DHT22;6808;49.444;11.034;2023-01-28T10:42:42;1.90;99.90
13472;DHT22;6808;49.444;11.034;2023-01-28T10:47:49;2.00;99.90
13472;DHT22;6808;49.444;11.034;2023-01-28T10:50:28;2.10;99.90
13472;DHT22;6808;49.444;11.034;2023-01-28T10:52:57;2.10;99.90
13472;DHT22;6808;49.444;11.034;2023-01-28T10:55:27;2.10;99.90
13472;DHT22;6808;49.444;11.034;2023-01-28T10:57:53;2.20;99.90
13472;DHT22;6808;49.444;11.034;2023-01-28T11:00:23;2.20;99.90
13472;DHT22;6808;49.444;11.034;2023-01-28T11:02:50;2.20;99.90
13472;DHT22;6808;49.444;11.034;2023-01-28T11:05:21;2.30;99.90
13472;DHT22;6808;49.444;11.034;2023-01-28T11:07:50;2.30;99.90
13472;DHT22;6808;49.444;11.034;2023-01-28T11:12:58;2.30;99.90
13472;DHT22;6808;49.444;11.034;2023-01-28T11:15:23;2.30;99.90
13472;DHT22;6808;49.444;11.034;2023-01-28T11:18:01;2.30;99.90
13472;DHT22;6808;49.444;11.034;2023-01-28T11:20:36;2.30;99.90
13472;DHT22;6808;49.444;11.034;2023-01-28T11:23:02;2.30;99.90
13472;DHT22;6808;49.444;11.034;2023-01-28T11:25:32;2.20;99.90
13472;DHT22;6808;49.444;11.034;2023-01-28T11:28:00;2.30;99.90
13472;DHT22;6808;49.444;11.034;2023-01-28T11:30:27;2.30;99.90
13472;DHT22;6808;49.444;11.034;2023-01-28T11:33:16;2.30;99.90
13472;DHT22;6808;49.444;11.034;2023-01-28T11:35:51;2.30;99.90
13472;DHT22;6808;49.444;11.034;2023-01-28T11:38:20;2.30;99.90
13472;DHT22;6808;49.444;11.034;2023-01-28T11:43:19;2.30;99.90
13472;DHT22;6808;49.444;11.034;2023-01-28T11:49:03;2.20;99.70
13472;DHT22;6808;49.444;11.034;2023-01-28T11:51:58;2.20;99.60
13472;DHT22;6808;49.444;11.034;2023-01-28T12:05:44;2.20;99.70
13472;DHT22;6808;49.444;11.034;2023-01-28T12:08:42;2.30;99.80
13472;DHT22;6808;49.444;11.034;2023-01-28T12:11:26;2.20;99.60
13472;DHT22;6808;49.444;11.034;2023-01-28T12:17:05;2.30;99.90
13472;DHT22;6808;49.444;11.034;2023-01-28T12:22:35;2.30;99.90
13472;DHT22;6808;49.444;11.034;2023-01-28T12:30:46;2.20;99.90
13472;DHT22;6808;49.444;11.034;2023-01-28T12:38:40;2.10;99.60
13472;DHT22;6808;49.444;11.034;2023-01-28T12:46:48;2.00;99.10
13472;DHT22;6808;49.444;11.034;2023-01-28T12:49:31;2.00;99.10
13472;DHT22;6808;49.444;11.034;2023-01-28T12:54:58;2.00;99.50
13472;DHT22;6808;49.444;11.034;2023-01-28T12:57:30;2.00;99.30
13472;DHT22;6808;49.444;11.034;2023-01-28T13:00:05;2.00;99.20
13472;DHT22;6808;49.444;11.034;2023-01-28T13:02:43;2.00;99.50
13472;DHT22;6808;49.444;11.034;2023-01-28T13:05:16;2.00;99.20
13472;DHT22;6808;49.444;11.034;2023-01-28T13:07:56;2.00;99.00
13472;DHT22;6808;49.444;11.034;2023-01-28T13:10:41;2.00;99.20
13472;DHT22;6808;49.444;11.034;2023-01-28T13:15:53;2.00;99.40
13472;DHT22;6808;49.444;11.034;2023-01-28T13:21:33;2.00;99.10
13472;DHT22;6808;49.444;11.034;2023-01-28T13:31:52;2.00;99.20
13472;DHT22;6808;49.444;11.034;2023-01-28T13:34:37;2.10;99.30
13472;DHT22;6808;49.444;11.034;2023-01-28T13:37:29;2.00;99.10
13472;DHT22;6808;49.444;11.034;2023-01-28T13:42:28;2.10;98.80
13472;DHT22;6808;49.444;11.034;2023-01-28T13:44:55;2.10;99.00
13472;DHT22;6808;49.444;11.034;2023-01-28T13:47:33;2.10;99.20
13472;DHT22;6808;49.444;11.034;2023-01-28T13:50:12;2.10;99.70
13472;DHT22;6808;49.444;11.034;2023-01-28T13:53:15;2.10;99.10
13472;DHT22;6808;49.444;11.034;2023-01-28T13:55:36;2.10;98.90
13472;DHT22;6808;49.444;11.034;2023-01-28T14:00:34;2.10;99.10
13472;DHT22;6808;49.444;11.034;2023-01-28T14:06:08;2.10;98.90
13472;DHT22;6808;49.444;11.034;2023-01-28T14:14:37;2.20;98.80
13472;DHT22;6808;49.444;11.034;2023-01-28T14:17:46;2.20;99.00
13472;DHT22;6808;49.444;11.034;2023-01-28T14:20:19;2.10;99.00
13472;DHT22;6808;49.444;11.034;2023-01-28T14:22:47;2.20;98.90
13472;DHT22;6808;49.444;11.034;2023-01-28T14:25:21;2.20;98.90
13472;DHT22;6808;49.444;11.034;2023-01-28T14:27:51;2.20;98.90
13472;DHT22;6808;49.444;11.034;2023-01-28T14:33:09;2.10;98.70
13472;DHT22;6808;49.444;11.034;2023-01-28T14:35:38;2.10;99.00
13472;DHT22;6808;49.444;11.034;2023-01-28T14:38:13;2.10;98.90
13472;DHT22;6808;49.444;11.034;2023-01-28T14:40:39;2.10;99.10
13472;DHT22;6808;49.444;11.034;2023-01-28T14:43:11;2.10;98.60
13472;DHT22;6808;49.444;11.034;2023-01-28T14:48:54;2.00;98.40
13472;DHT22;6808;49.444;11.034;2023-01-28T14:54:12;2.00;98.70
13472;DHT22;6808;49.444;11.034;2023-01-28T14:59:53;2.00;99.10
13472;DHT22;6808;49.444;11.034;2023-01-28T15:02:27;1.90;98.70
13472;DHT22;6808;49.444;11.034;2023-01-28T15:04:54;1.90;98.60
13472;DHT22;6808;49.444;11.034;2023-01-28T15:07:22;1.90;98.70
13472;DHT22;6808;49.444;11.034;2023-01-28T15:10:05;1.80;98.40
13472;DHT22;6808;49.444;11.034;2023-01-28T15:12:38;1.80;98.70
13472;DHT22;6808;49.444;11.034;2023-01-28T15:15:20;1.80;99.10
13472;DHT22;6808;49.444;11.034;2023-01-28T15:17:49;1.80;99.20
13472;DHT22;6808;49.444;11.034;2023-01-28T15:20:19;1.70;99.00
13472;DHT22;6808;49.444;11.034;2023-01-28T15:22:45;1.70;99.40
13472;DHT22;6808;49.444;11.034;2023-01-28T15:25:22;1.60;99.40
13472;DHT22;6808;49.444;11.034;2023-01-28T15:27:49;1.60;99.40
13472;DHT22;6808;49.444;11.034;2023-01-28T15:30:29;1.60;99.40
13472;DHT22;6808;49.444;11.034;2023-01-28T15:35:28;1.50;99.30
13472;DHT22;6808;49.444;11.034;2023-01-28T15:37:54;1.50;99.30
13472;DHT22;6808;49.444;11.034;2023-01-28T15:40:21;1.50;99.40
13472;DHT22;6808;49.444;11.034;2023-01-28T15:42:48;1.50;99.50
13472;DHT22;6808;49.444;11.034;2023-01-28T15:45:19;1.40;99.50
13472;DHT22;6808;49.444;11.034;2023-01-28T15:47:46;1.50;99.40
13472;DHT22;6808;49.444;11.034;2023-01-28T15:50:22;1.50;99.50
13472;DHT22;6808;49.444;11.034;2023-01-28T15:52:50;1.40;99.50
13472;DHT22;6808;49.444;11.034;2023-01-28T15:55:39;1.50;99.80
13472;DHT22;6808;49.444;11.034;2023-01-28T15:58:19;1.40;99.60
13472;DHT22;6808;49.444;11.034;2023-01-28T16:00:49;1.40;99.70
13472;DHT22;6808;49.444;11.034;2023-01-28T16:03:21;1.40;99.80
13472;DHT22;6808;49.444;11.034;2023-01-28T16:06:02;1.40;99.50
13472;DHT22;6808;49.444;11.034;2023-01-28T16:08:44;1.40;99.60
13472;DHT22;6808;49.444;11.034;2023-01-28T16:11:11;1.30;99.50
13472;DHT22;6808;49.444;11.034;2023-01-28T16:13:42;1.30;99.50
13472;DHT22;6808;49.444;11.034;2023-01-28T16:16:09;1.20;99.40
13472;DHT22;6808;49.444;11.034;2023-01-28T16:18:52;1.30;99.50
13472;DHT22;6808;49.444;11.034;2023-01-28T16:21:23;1.20;99.60
13472;DHT22;6808;49.444;11.034;2023-01-28T16:23:58;1.20;99.70
13472;DHT22;6808;49.444;11.034;2023-01-28T16:26:26;1.20;99.70
13472;DHT22;6808;49.444;11.034;2023-01-28T16:28:52;1.20;99.70
13472;DHT22;6808;49.444;11.034;2023-01-28T16:31:18;1.20;99.50
13472;DHT22;6808;49.444;11.034;2023-01-28T16:33:44;1.20;99.60
13472;DHT22;6808;49.444;11.034;2023-01-28T16:36:15;1.20;99.60
13472;DHT22;6808;49.444;11.034;2023-01-28T16:38:42;1.20;99.60
13472;DHT22;6808;49.444;11.034;2023-01-28T16:41:25;1.20;99.70
13472;DHT22;6808;49.444;11.034;2023-01-28T16:43:52;1.10;99.60
13472;DHT22;6808;49.444;11.034;2023-01-28T16:46:18;1.10;99.40
13472;DHT22;6808;49.444;11.034;2023-01-28T16:48:43;1.10;99.40
13472;DHT22;6808;49.444;11.034;2023-01-28T16:51:15;1.00;99.20
13472;DHT22;6808;49.444;11.034;2023-01-28T16:53:42;1.10;99.40
13472;DHT22;6808;49.444;11.034;2023-01-28T16:56:15;1.10;99.40
13472;DHT22;6808;49.444;11.034;2023-01-28T16:58:42;1.10;99.50
13472;DHT22;6808;49.444;11.034;2023-01-28T17:01:08;1.10;99.40
13472;DHT22;6808;49.444;11.034;2023-01-28T17:03:34;1.10;99.30
13472;DHT22;6808;49.444;11.034;2023-01-28T17:05:59;1.20;99.30
13472;DHT22;6808;49.444;11.034;2023-01-28T17:08:24;1.00;99.20
13472;DHT22;6808;49.444;11.034;2023-01-28T17:10:52;1.00;99.10
13472;DHT22;6808;49.444;11.034;2023-01-28T17:13:18;1.00;99.00
13472;DHT22;6808;49.444;11.034;2023-01-28T17:15:44;1.10;99.20
13472;DHT22;6808;49.444;11.034;2023-01-28T17:18:10;0.90;98.90
13472;DHT22;6808;49.444;11.034;2023-01-28T17:20:36;0.90;98.90
13472;DHT22;6808;49.444;11.034;2023-01-28T17:23:05;0.90;99.00
13472;DHT22;6808;49.444;11.034;2023-01-28T17:25:37;0.90;99.20
13472;DHT22;6808;49.444;11.034;2023-01-28T17:28:04;0.90;99.10
13472;DHT22;6808;49.444;11.034;2023-01-28T17:30:29;0.80;98.90
13472;DHT22;6808;49.444;11.034;2023-01-28T17:32:55;0.80;98.90
13472;DHT22;6808;49.444;11.034;2023-01-28T17:35:20;0.90;98.90
13472;DHT22;6808;49.444;11.034;2023-01-28T17:37:46;0.80;98.90
13472;DHT22;6808;49.444;11.034;2023-01-28T17:40:12;0.80;99.00
13472;DHT22;6808;49.444;11.034;2023-01-28T17:42:39;0.80;99.00
13472;DHT22;6808;49.444;11.034;2023-01-28T17:45:04;0.90;99.00
13472;DHT22;6808;49.444;11.034;2023-01-28T17:47:30;0.80;98.90
13472;DHT22;6808;49.444;11.034;2023-01-28T17:49:56;0.80;98.90
13472;DHT22;6808;49.444;11.034;2023-01-28T17:52:22;0.80;99.00
13472;DHT22;6808;49.444;11.034;2023-01-28T17:54:48;0.80;99.10
13472;DHT22;6808;49.444;11.034;2023-01-28T17:57:14;0.90;99.30
13472;DHT22;6808;49.444;11.034;2023-01-28T17:59:39;0.90;99.40
13472;DHT22;6808;49.444;11.034;2023-01-28T18:02:05;0.80;99.30
13472;DHT22;6808;49.444;11.034;2023-01-28T18:04:36;0.80;99.20
13472;DHT22;6808;49.444;11.034;2023-01-28T18:07:02;0.70;99.20